sensor_id;sensor_type;location;lat;lon;timestamp;temperature;humidity
8105;DHT22;4095;48.942;9.104;2023-08-12T00:00:06;21.60;99.90
8105;DHT22;4095;48.942;9.104;2023-08-12T00:02:42;21.50;99.90
8105;DHT22;4095;48.942;9.104;2023-08-12T00:05:08;21.50;99.90
8105;DHT22;4095;48.942;9.104;2023-08-12T00:07:34;21.50;99.90
8105;DHT22;4095;48.942;9.104;2023-08-12T00:10:04;21.50;99.90
8105;DHT22;4095;48.942;9.104;2023-08-12T00:12:33;21.50;99.90
8105;DHT22;4095;48.942;9.104;2023-08-12T00:14:59;21.50;99.90
8105;DHT22;4095;48.942;9.104;2023-08-12T00:17:25;21.50;99.90
8105;DHT22;4095;48.942;9.104;2023-08-12T00:19:51;21.50;99.90
8105;DHT22;4095;48.942;9.104;2023-08-12T00:22:16;21.50;99.90
8105;DHT22;4095;48.942;9.104;2023-08-12T00:24:42;21.50;99.90
8105;DHT22;4095;48.942;9.104;2023-08-12T00:27:08;21.50;99.90
8105;DHT22;4095;48.942;9.104;2023-08-12T00:29:34;21.40;99.90
8105;DHT22;4095;48.942;9.104;2023-08-12T00:32:00;21.40;99.90
8105;DHT22;4095;48.942;9.104;2023-08-12T00:34:26;21.40;99.90
8105;DHT22;4095;48.942;9.104;2023-08-12T00:36:52;21.40;99.90
8105;DHT22;4095;48.942;9.104;2023-08-12T00:39:18;21.30;99.90
8105;DHT22;4095;48.942;9.104;2023-08-12T00:41:43;21.30;99.90
8105;DHT22;4095;48.942;9.104;2023-08-12T00:44:09;21.30;99.90
8105;DHT22;4095;48.942;9.104;2023-08-12T00:46:36;21.30;99.90
8105;DHT22;4095;48.942;9.104;2023-08-12T00:49:02;21.30;99.90
8105;DHT22;4095;48.942;9.104;2023-08-12T00:51:27;21.30;99.90
8105;DHT22;4095;48.942;9.104;2023-08-12T00:53:54;21.30;99.90
8105;DHT22;4095;48.942;9.104;2023-08-12T00:56:20;21.20;99.90
8105;DHT22;4095;48.942;9.104;2023-08-12T00:58:46;21.20;99.90
8105;DHT22;4095;48.942;9.104;2023-08-12T01:01:13;21.20;99.90
8105;DHT22;4095;48.942;9.104;2023-08-12T01:03:39;21.20;99.90
8105;DHT22;4095;48.942;9.104;2023-08-12T01:06:04;21.20;99.90
8105;DHT22;4095;48.942;9.104;2023-08-12T01:08:32;21.10;99.90
8105;DHT22;4095;48.942;9.104;2023-08-12T01:11:16;21.10;99.90
8105;DHT22;4095;48.942;9.104;2023-08-12T01:16:16;21.10;99.90
8105;DHT22;4095;48.942;9.104;2023-08-12T01:18:43;21.10;99.90
8105;DHT22;4095;48.942;9.104;2023-08-12T01:21:11;21.10;99.90
8105;DHT22;4095;48.942;9.104;2023-08-12T01:23:41;21.10;99.90
8105;DHT22;4095;48.942;9.104;2023-08-12T01:26:06;21.00;99.90
8105;DHT22;4095;48.942;9.104;2023-08-12T01:28:32;21.00;99.90
8105;DHT22;4095;48.942;9.104;2023-08-12T01:31:06;21.00;99.90
8105;DHT22;4095;48.942;9.104;2023-08-12T01:33:52;21.00;99.90
8105;DHT22;4095;48.942;9.104;2023-08-12T01:36:23;21.00;99.90
8105;DHT22;4095;48.942;9.104;2023-08-12T01:38:51;20.90;99.90
8105;DHT22;4095;48.942;9.104;2023-08-12T01:41:19;20.90;99.90
8105;DHT22;4095;48.942;9.104;2023-08-12T01:43:46;20.90;99.90
8105;DHT22;4095;48.942;9.104;2023-08-12T01:46:12;20.90;99.90
8105;DHT22;4095;48.942;9.104;2023-08-12T01:48:38;20.90;99.90
8105;DHT22;4095;48.942;9.104;2023-08-12T01:51:04;20.90;99.90
8105;DHT22;4095;48.942;9.104;2023-08-12T01:53:30;20.90;99.90
8105;DHT22;4095;48.942;9.104;2023-08-12T01:55:55;20.90;99.90
8105;DHT22;4095;48.942;9.104;2023-08-12T01:58:21;20.90;99.90
8105;DHT22;4095;48.942;9.104;2023-08-12T02:00:46;20.90;99.90
8105;DHT22;4095;48.942;9.104;2023-08-12T02:03:12;20.80;99.90
8105;DHT22;4095;48.942;9.104;2023-08-12T02:05:38;20.90;99.90
8105;DHT22;4095;48.942;9.104;2023-08-12T02:08:04;20.80;99.90
8105;DHT22;4095;48.942;9.104;2023-08-12T02:10:30;20.90;99.90
8105;DHT22;4095;48.942;9.104;2023-08-12T02:12:56;20.90;99.90
8105;DHT22;4095;48.942;9.104;2023-08-12T02:15:21;20.90;99.90
8105;DHT22;4095;48.942;9.104;2023-08-12T02:17:47;20.90;99.90
8105;DHT22;4095;48.942;9.104;2023-08-12T02:20:12;20.90;99.90
8105;DHT22;4095;48.942;9.104;2023-08-12T02:22:38;20.90;99.90
8105;DHT22;4095;48.942;9.104;2023-08-12T02:25:04;20.90;99.90
8105;DHT22;4095;48.942;9.104;2023-08-12T02:27:30;20.90;99.90
8105;DHT22;4095;48.942;9.104;2023-08-12T02:29:55;20.90;99.90
8105;DHT22;4095;48.942;9.104;2023-08-12T02:32:21;20.90;99.90
8105;DHT22;4095;48.942;9.104;2023-08-12T02:34:47;20.90;99.90
8105;DHT22;4095;48.942;9.104;2023-08-12T02:37:13;21.00;99.90
8105;DHT22;4095;48.942;9.104;2023-08-12T02:39:39;21.00;99.90
8105;DHT22;4095;48.942;9.104;2023-08-12T02:42:05;21.10;99.90
8105;DHT22;4095;48.942;9.104;2023-08-12T02:44:30;21.00;99.90
8105;DHT22;4095;48.942;9.104;2023-08-12T02:46:56;21.10;99.90
8105;DHT22;4095;48.942;9.104;2023-08-12T02:49:21;21.10;99.90
8105;DHT22;4095;48.942;9.104;2023-08-12T02:51:47;21.10;99.90
8105;DHT22;4095;48.942;9.104;2023-08-12T02:54:12;21.10;99.90
8105;DHT22;4095;48.942;9.104;2023-08-12T02:56:39;21.10;99.90
8105;DHT22;4095;48.942;9.104;2023-08-12T02:59:05;21.10;99.90
8105;DHT22;4095;48.942;9.104;2023-08-12T03:01:31;21.10;99.90
8105;DHT22;4095;48.942;9.104;2023-08-12T03:03:56;21.10;99.90
8105;DHT22;4095;48.942;9.104;2023-08-12T03:06:22;21.10;99.90
8105;DHT22;4095;48.942;9.104;2023-08-12T03:08:47;21.10;99.90
8105;DHT22;4095;48.942;9.104;2023-08-12T03:11:13;21.10;99.90
8105;DHT22;4095;48.942;9.104;2023-08-12T03:13:39;21.10;99.90
8105;DHT22;4095;48.942;9.104;2023-08-12T03:16:04;21.10;99.90
8105;DHT22;4095;48.942;9.104;2023-08-12T03:18:30;21.10;99.90
8105;DHT22;4095;48.942;9.104;2023-08-12T03:20:55;21.20;99.90
8105;DHT22;4095;48.942;9.104;2023-08-12T03:23:21;21.20;99.90
8105;DHT22;4095;48.942;9.104;2023-08-12T03:25:47;21.20;99.90
8105;DHT22;4095;48.942;9.104;2023-08-12T03:28:13;21.20;99.90
8105;DHT22;4095;48.942;9.104;2023-08-12T03:30:39;21.10;99.90
8105;DHT22;4095;48.942;9.104;2023-08-12T03:33:05;21.10;99.90
8105;DHT22;4095;48.942;9.104;2023-08-12T03:35:30;21.10;99.90
8105;DHT22;4095;48.942;9.104;2023-08-12T03:37:56;21.10;99.90
8105;DHT22;4095;48.942;9.104;2023-08-12T03:40:21;21.20;99.90
8105;DHT22;4095;48.942;9.104;2023-08-12T03:42:47;21.10;99.90
8105;DHT22;4095;48.942;9.104;2023-08-12T03:45:13;21.10;99.90
8105;DHT22;4095;48.942;9.104;2023-08-12T03:47:38;21.10;99.90
8105;DHT22;4095;48.942;9.104;2023-08-12T03:50:05;21.20;99.90
8105;DHT22;4095;48.942;9.104;2023-08-12T03:52:31;21.20;99.90
8105;DHT22;4095;48.942;9.104;2023-08-12T03:54:57;21.20;99.90
8105;DHT22;4095;48.942;9.104;2023-08-12T03:57:22;21.20;99.90
8105;DHT22;4095;48.942;9.104;2023-08-12T03:59:48;21.20;99.90
8105;DHT22;4095;48.942;9.104;2023-08-12T04:02:14;21.20;99.90
8105;DHT22;4095;48.942;9.104;2023-08-12T04:04:39;21.20;99.90
8105;DHT22;4095;48.942;9.104;2023-08-12T04:07:05;21.10;99.90
8105;DHT22;4095;48.942;9.104;2023-08-12T04:09:30;21.20;99.90
8105;DHT22;4095;48.942;9.104;2023-08-12T04:11:56;21.20;99.90
8105;DHT22;4095;48.942;9.104;2023-08-12T04:14:22;21.20;99.90
8105;DHT22;4095;48.942;9.104;2023-08-12T04:16:47;21.20;99.90
8105;DHT22;4095;48.942;9.104;2023-08-12T04:19:13;21.20;99.90
8105;DHT22;4095;48.942;9.104;2023-08-12T04:21:39;21.20;99.90
8105;DHT22;4095;48.942;9.104;2023-08-12T04:24:05;21.20;99.90
8105;DHT22;4095;48.942;9.104;2023-08-12T04:26:30;21.20;99.90
8105;DHT22;4095;48.942;9.104;2023-08-12T04:28:56;21.20;99.90
8105;DHT22;4095;48.942;9.104;2023-08-12T04:31:21;21.20;99.90
8105;DHT22;4095;48.942;9.104;2023-08-12T04:33:47;21.20;99.90
8105;DHT22;4095;48.942;9.104;2023-08-12T04:36:14;21.20;99.90
8105;DHT22;4095;48.942;9.104;2023-08-12T04:38:40;21.20;99.90
8105;DHT22;4095;48.942;9.104;2023-08-12T04:41:05;21.20;99.90
8105;DHT22;4095;48.942;9.104;2023-08-12T04:43:31;21.20;99.90
8105;DHT22;4095;48.942;9.104;2023-08-12T04:45:57;21.20;99.90
8105;DHT22;4095;48.942;9.104;2023-08-12T04:48:22;21.30;99.90
8105;DHT22;4095;48.942;9.104;2023-08-12T04:50:48;21.30;99.90
8105;DHT22;4095;48.942;9.104;2023-08-12T04:53:14;21.30;99.90
8105;DHT22;4095;48.942;9.104;2023-08-12T04:55:39;21.30;99.90
8105;DHT22;4095;48.942;9.104;2023-08-12T04:58:05;21.30;99.90
8105;DHT22;4095;48.942;9.104;2023-08-12T05:00:30;21.30;99.90
8105;DHT22;4095;48.942;9.104;2023-08-12T05:02:56;21.30;99.90
8105;DHT22;4095;48.942;9.104;2023-08-12T05:05:22;21.40;99.90
8105;DHT22;4095;48.942;9.104;2023-08-12T05:07:47;21.40;99.90
8105;DHT22;4095;48.942;9.104;2023-08-12T05:10:15;21.30;99.90
8105;DHT22;4095;48.942;9.104;2023-08-12T05:12:45;21.40;99.90
8105;DHT22;4095;48.942;9.104;2023-08-12T05:15:11;21.40;99.90
8105;DHT22;4095;48.942;9.104;2023-08-12T05:17:37;21.40;99.90
8105;DHT22;4095;48.942;9.104;2023-08-12T05:20:03;21.40;99.90
8105;DHT22;4095;48.942;9.104;2023-08-12T05:22:29;21.40;99.90
8105;DHT22;4095;48.942;9.104;2023-08-12T05:24:54;21.40;99.90
8105;DHT22;4095;48.942;9.104;2023-08-12T05:27:20;21.50;99.90
8105;DHT22;4095;48.942;9.104;2023-08-12T05:29:46;21.50;99.90
8105;DHT22;4095;48.942;9.104;2023-08-12T05:32:11;21.50;99.90
8105;DHT22;4095;48.942;9.104;2023-08-12T05:34:37;21.50;99.90
8105;DHT22;4095;48.942;9.104;2023-08-12T05:37:02;21.50;99.90
8105;DHT22;4095;48.942;9.104;2023-08-12T05:39:28;21.50;99.90
8105;DHT22;4095;48.942;9.104;2023-08-12T05:41:53;21.50;99.90
8105;DHT22;4095;48.942;9.104;2023-08-12T05:44:19;21.50;99.90
8105;DHT22;4095;48.942;9.104;2023-08-12T05:46:45;21.60;99.90
8105;DHT22;4095;48.942;9.104;2023-08-12T05:49:11;21.60;99.90
8105;DHT22;4095;48.942;9.104;2023-08-12T05:51:37;21.60;99.90
8105;DHT22;4095;48.942;9.104;2023-08-12T05:54:04;21.60;99.90
8105;DHT22;4095;48.942;9.104;2023-08-12T05:56:30;21.70;99.90
8105;DHT22;4095;48.942;9.104;2023-08-12T05:58:55;21.70;99.90
8105;DHT22;4095;48.942;9.104;2023-08-12T06:01:21;21.70;99.90
8105;DHT22;4095;48.942;9.104;2023-08-12T06:03:46;21.70;99.90
8105;DHT22;4095;48.942;9.104;2023-08-12T06:06:12;21.80;99.90
8105;DHT22;4095;48.942;9.104;2023-08-12T06:08:38;21.70;99.90
8105;DHT22;4095;48.942;9.104;2023-08-12T06:11:03;21.80;99.90
8105;DHT22;4095;48.942;9.104;2023-08-12T06:13:29;21.80;99.90
8105;DHT22;4095;48.942;9.104;2023-08-12T06:15:55;21.90;99.90
8105;DHT22;4095;48.942;9.104;2023-08-12T06:18:20;21.80;99.90
8105;DHT22;4095;48.942;9.104;2023-08-12T06:20:46;21.90;99.90
8105;DHT22;4095;48.942;9.104;2023-08-12T06:23:12;21.80;99.90
8105;DHT22;4095;48.942;9.104;2023-08-12T06:25:37;21.90;99.90
8105;DHT22;4095;48.942;9.104;2023-08-12T06:28:03;21.90;99.90
8105;DHT22;4095;48.942;9.104;2023-08-12T06:30:30;21.90;99.90
8105;DHT22;4095;48.942;9.104;2023-08-12T06:32:55;22.00;99.90
8105;DHT22;4095;48.942;9.104;2023-08-12T06:35:21;22.00;99.90
8105;DHT22;4095;48.942;9.104;2023-08-12T06:37:47;22.10;99.90
8105;DHT22;4095;48.942;9.104;2023-08-12T06:40:12;22.10;99.90
8105;DHT22;4095;48.942;9.104;2023-08-12T06:42:38;22.20;99.90
8105;DHT22;4095;48.942;9.104;2023-08-12T06:45:04;22.20;99.90
8105;DHT22;4095;48.942;9.104;2023-08-12T06:47:30;22.30;99.90
8105;DHT22;4095;48.942;9.104;2023-08-12T06:49:55;22.30;99.90
8105;DHT22;4095;48.942;9.104;2023-08-12T06:52:21;22.30;99.90
8105;DHT22;4095;48.942;9.104;2023-08-12T06:54:47;22.40;99.90
8105;DHT22;4095;48.942;9.104;2023-08-12T06:57:12;22.40;99.90
8105;DHT22;4095;48.942;9.104;2023-08-12T06:59:38;22.50;99.90
8105;DHT22;4095;48.942;9.104;2023-08-12T07:02:05;22.50;99.90
8105;DHT22;4095;48.942;9.104;2023-08-12T07:04:30;22.60;99.90
8105;DHT22;4095;48.942;9.104;2023-08-12T07:06:56;22.70;99.90
8105;DHT22;4095;48.942;9.104;2023-08-12T07:09:22;22.70;99.90
8105;DHT22;4095;48.942;9.104;2023-08-12T07:11:47;22.80;99.90
8105;DHT22;4095;48.942;9.104;2023-08-12T07:14:13;22.90;99.90
8105;DHT22;4095;48.942;9.104;2023-08-12T07:16:39;22.90;99.90
8105;DHT22;4095;48.942;9.104;2023-08-12T07:19:04;22.90;99.90
8105;DHT22;4095;48.942;9.104;2023-08-12T07:21:30;22.90;99.90
8105;DHT22;4095;48.942;9.104;2023-08-12T07:23:55;23.10;99.90
8105;DHT22;4095;48.942;9.104;2023-08-12T07:26:21;23.10;99.90
8105;DHT22;4095;48.942;9.104;2023-08-12T07:28:47;23.20;99.90
8105;DHT22;4095;48.942;9.104;2023-08-12T07:31:13;23.20;99.90
8105;DHT22;4095;48.942;9.104;2023-08-12T07:33:38;23.20;99.90
8105;DHT22;4095;48.942;9.104;2023-08-12T07:36:04;23.30;99.90
8105;DHT22;4095;48.942;9.104;2023-08-12T07:38:30;23.40;99.90
8105;DHT22;4095;48.942;9.104;2023-08-12T07:40:56;23.60;99.90
8105;DHT22;4095;48.942;9.104;2023-08-12T07:43:21;23.60;99.90
8105;DHT22;4095;48.942;9.104;2023-08-12T07:45:51;23.70;99.90
8105;DHT22;4095;48.942;9.104;2023-08-12T07:48:18;23.60;99.90
8105;DHT22;4095;48.942;9.104;2023-08-12T07:50:44;23.70;99.90
8105;DHT22;4095;48.942;9.104;2023-08-12T07:53:09;23.80;99.90
8105;DHT22;4095;48.942;9.104;2023-08-12T07:55:35;23.80;99.90
8105;DHT22;4095;48.942;9.104;2023-08-12T07:58:01;24.00;99.90
8105;DHT22;4095;48.942;9.104;2023-08-12T08:00:26;24.20;99.90
8105;DHT22;4095;48.942;9.104;2023-08-12T08:02:52;24.30;99.90
8105;DHT22;4095;48.942;9.104;2023-08-12T08:05:17;24.50;99.90
8105;DHT22;4095;48.942;9.104;2023-08-12T08:07:43;24.70;99.90
8105;DHT22;4095;48.942;9.104;2023-08-12T08:10:09;24.80;99.90
8105;DHT22;4095;48.942;9.104;2023-08-12T08:12:35;24.80;99.90
8105;DHT22;4095;48.942;9.104;2023-08-12T08:15:01;25.00;99.90
8105;DHT22;4095;48.942;9.104;2023-08-12T08:17:28;25.10;99.90
8105;DHT22;4095;48.942;9.104;2023-08-12T08:19:54;25.30;99.90
8105;DHT22;4095;48.942;9.104;2023-08-12T08:22:19;25.50;99.90
8105;DHT22;4095;48.942;9.104;2023-08-12T08:24:45;25.40;99.90
8105;DHT22;4095;48.942;9.104;2023-08-12T08:27:11;25.40;99.90
8105;DHT22;4095;48.942;9.104;2023-08-12T08:29:36;25.40;99.90
8105;DHT22;4095;48.942;9.104;2023-08-12T08:32:02;25.40;99.90
8105;DHT22;4095;48.942;9.104;2023-08-12T08:34:28;25.40;99.90
8105;DHT22;4095;48.942;9.104;2023-08-12T08:36:53;25.50;99.90
8105;DHT22;4095;48.942;9.104;2023-08-12T08:39:20;25.70;99.90
8105;DHT22;4095;48.942;9.104;2023-08-12T08:41:48;25.80;99.90
8105;DHT22;4095;48.942;9.104;2023-08-12T08:44:15;25.90;99.90
8105;DHT22;4095;48.942;9.104;2023-08-12T08:46:42;26.10;99.90
8105;DHT22;4095;48.942;9.104;2023-08-12T08:49:09;26.20;99.90
8105;DHT22;4095;48.942;9.104;2023-08-12T08:51:36;26.30;99.90
8105;DHT22;4095;48.942;9.104;2023-08-12T08:54:02;26.60;99.90
8105;DHT22;4095;48.942;9.104;2023-08-12T08:56:30;26.60;99.90
8105;DHT22;4095;48.942;9.104;2023-08-12T08:58:56;26.70;99.90
8105;DHT22;4095;48.942;9.104;2023-08-12T09:01:22;26.70;99.90
8105;DHT22;4095;48.942;9.104;2023-08-12T09:03:51;26.60;99.90
8105;DHT22;4095;48.942;9.104;2023-08-12T09:06:21;26.70;99.90
8105;DHT22;4095;48.942;9.104;2023-08-12T09:08:48;26.90;99.90
8105;DHT22;4095;48.942;9.104;2023-08-12T09:11:17;27.10;99.90
8105;DHT22;4095;48.942;9.104;2023-08-12T09:13:43;27.30;99.90
8105;DHT22;4095;48.942;9.104;2023-08-12T09:16:08;27.30;99.90
8105;DHT22;4095;48.942;9.104;2023-08-12T09:18:34;27.50;99.90
8105;DHT22;4095;48.942;9.104;2023-08-12T09:21:01;27.70;99.90
8105;DHT22;4095;48.942;9.104;2023-08-12T09:23:27;27.80;99.90
8105;DHT22;4095;48.942;9.104;2023-08-12T09:25:53;27.90;99.90
8105;DHT22;4095;48.942;9.104;2023-08-12T09:28:18;28.00;99.90
8105;DHT22;4095;48.942;9.104;2023-08-12T09:30:50;28.00;99.90
8105;DHT22;4095;48.942;9.104;2023-08-12T09:33:24;28.10;99.90
8105;DHT22;4095;48.942;9.104;2023-08-12T09:35:51;28.20;99.90
8105;DHT22;4095;48.942;9.104;2023-08-12T09:38:17;28.30;99.90
8105;DHT22;4095;48.942;9.104;2023-08-12T09:40:42;28.40;99.90
8105;DHT22;4095;48.942;9.104;2023-08-12T09:43:10;28.50;99.90
8105;DHT22;4095;48.942;9.104;2023-08-12T09:45:37;28.70;99.90
8105;DHT22;4095;48.942;9.104;2023-08-12T09:48:03;28.90;99.90
8105;DHT22;4095;48.942;9.104;2023-08-12T09:50:28;29.10;99.90
8105;DHT22;4095;48.942;9.104;2023-08-12T09:52:55;29.30;99.90
8105;DHT22;4095;48.942;9.104;2023-08-12T09:55:23;29.30;99.90
8105;DHT22;4095;48.942;9.104;2023-08-12T09:57:52;29.20;99.90
8105;DHT22;4095;48.942;9.104;2023-08-12T10:00:19;29.10;99.90
8105;DHT22;4095;48.942;9.104;2023-08-12T10:02:47;29.00;99.90
8105;DHT22;4095;48.942;9.104;2023-08-12T10:05:20;28.90;99.90
8105;DHT22;4095;48.942;9.104;2023-08-12T10:07:47;28.70;99.90
8105;DHT22;4095;48.942;9.104;2023-08-12T10:10:14;28.60;99.90
8105;DHT22;4095;48.942;9.104;2023-08-12T10:12:41;28.50;99.90
8105;DHT22;4095;48.942;9.104;2023-08-12T10:15:07;28.60;99.90
8105;DHT22;4095;48.942;9.104;2023-08-12T10:17:34;28.90;99.90
8105;DHT22;4095;48.942;9.104;2023-08-12T10:20:03;29.00;99.90
8105;DHT22;4095;48.942;9.104;2023-08-12T10:22:30;29.10;99.90
8105;DHT22;4095;48.942;9.104;2023-08-12T10:25:01;29.20;99.90
8105;DHT22;4095;48.942;9.104;2023-08-12T10:27:28;29.40;99.90
8105;DHT22;4095;48.942;9.104;2023-08-12T10:29:56;29.60;99.90
8105;DHT22;4095;48.942;9.104;2023-08-12T10:32:23;29.90;99.90
8105;DHT22;4095;48.942;9.104;2023-08-12T10:34:55;30.00;99.90
8105;DHT22;4095;48.942;9.104;2023-08-12T10:37:24;30.00;99.90
8105;DHT22;4095;48.942;9.104;2023-08-12T10:39:51;30.10;99.90
8105;DHT22;4095;48.942;9.104;2023-08-12T10:42:42;30.30;99.90
8105;DHT22;4095;48.942;9.104;2023-08-12T10:45:12;30.20;99.90
8105;DHT22;4095;48.942;9.104;2023-08-12T10:47:49;30.40;99.90
8105;DHT22;4095;48.942;9.104;2023-08-12T10:50:21;30.60;99.90
8105;DHT22;4095;48.942;9.104;2023-08-12T10:52:50;30.70;99.90
8105;DHT22;4095;48.942;9.104;2023-08-12T10:55:27;30.70;99.90
8105;DHT22;4095;48.942;9.104;2023-08-12T10:57:54;30.60;99.90
8105;DHT22;4095;48.942;9.104;2023-08-12T11:00:26;30.30;99.90
8105;DHT22;4095;48.942;9.104;2023-08-12T11:02:56;30.20;99.90
8105;DHT22;4095;48.942;9.104;2023-08-12T11:05:23;30.10;99.90
8105;DHT22;4095;48.942;9.104;2023-08-12T11:07:59;30.00;99.90
8105;DHT22;4095;48.942;9.104;2023-08-12T11:10:32;30.20;99.90
8105;DHT22;4095;48.942;9.104;2023-08-12T11:12:58;30.30;99.90
8105;DHT22;4095;48.942;9.104;2023-08-12T11:15:37;30.30;99.90
8105;DHT22;4095;48.942;9.104;2023-08-12T11:18:07;30.40;99.90
8105;DHT22;4095;48.942;9.104;2023-08-12T11:20:33;30.60;99.90
8105;DHT22;4095;48.942;9.104;2023-08-12T11:23:00;30.70;99.90
8105;DHT22;4095;48.942;9.104;2023-08-12T11:25:27;30.70;99.90
8105;DHT22;4095;48.942;9.104;2023-08-12T11:27:53;30.60;99.90
8105;DHT22;4095;48.942;9.104;2023-08-12T11:30:21;30.40;99.90
8105;DHT22;4095;48.942;9.104;2023-08-12T11:32:49;30.30;99.90
8105;DHT22;4095;48.942;9.104;2023-08-12T11:35:17;30.10;99.90
8105;DHT22;4095;48.942;9.104;2023-08-12T11:37:45;29.90;99.90
8105;DHT22;4095;48.942;9.104;2023-08-12T11:40:12;29.60;99.90
8105;DHT22;4095;48.942;9.104;2023-08-12T11:42:41;29.30;99.90
8105;DHT22;4095;48.942;9.104;2023-08-12T11:45:08;28.80;99.90
8105;DHT22;4095;48.942;9.104;2023-08-12T11:47:35;28.50;99.90
8105;DHT22;4095;48.942;9.104;2023-08-12T11:50:08;28.00;99.90
8105;DHT22;4095;48.942;9.104;2023-08-12T11:52:35;27.40;99.90
8105;DHT22;4095;48.942;9.104;2023-08-12T11:55:02;26.80;99.90
8105;DHT22;4095;48.942;9.104;2023-08-12T11:57:28;26.10;99.90
8105;DHT22;4095;48.942;9.104;2023-08-12T12:00:02;25.70;99.90
8105;DHT22;4095;48.942;9.104;2023-08-12T12:02:30;25.40;99.90
8105;DHT22;4095;48.942;9.104;2023-08-12T12:04:56;25.10;99.90
8105;DHT22;4095;48.942;9.104;2023-08-12T12:07:25;25.00;99.90
8105;DHT22;4095;48.942;9.104;2023-08-12T12:09:55;25.00;99.90
8105;DHT22;4095;48.942;9.104;2023-08-12T12:12:24;25.10;99.90
8105;DHT22;4095;48.942;9.104;2023-08-12T12:14:53;25.00;99.90
8105;DHT22;4095;48.942;9.104;2023-08-12T12:17:22;24.90;99.90
8105;DHT22;4095;48.942;9.104;2023-08-12T12:19:52;25.00;99.90
8105;DHT22;4095;48.942;9.104;2023-08-12T12:22:18;24.90;99.90
8105;DHT22;4095;48.942;9.104;2023-08-12T12:24:45;24.90;99.90
8105;DHT22;4095;48.942;9.104;2023-08-12T12:27:14;24.90;99.90
8105;DHT22;4095;48.942;9.104;2023-08-12T12:29:40;24.90;99.90
8105;DHT22;4095;48.942;9.104;2023-08-12T12:32:06;24.80;99.90
8105;DHT22;4095;48.942;9.104;2023-08-12T12:34:31;24.80;99.90
8105;DHT22;4095;48.942;9.104;2023-08-12T12:36:57;24.70;99.90
8105;DHT22;4095;48.942;9.104;2023-08-12T12:39:22;24.70;99.90
8105;DHT22;4095;48.942;9.104;2023-08-12T12:41:49;24.70;99.90
8105;DHT22;4095;48.942;9.104;2023-08-12T12:44:14;24.50;99.90
8105;DHT22;4095;48.942;9.104;2023-08-12T12:46:40;24.50;99.90
8105;DHT22;4095;48.942;9.104;2023-08-12T12:49:07;24.30;99.90
8105;DHT22;4095;48.942;9.104;2023-08-12T12:51:32;24.20;99.90
8105;DHT22;4095;48.942;9.104;2023-08-12T12:53:58;24.10;99.90
8105;DHT22;4095;48.942;9.104;2023-08-12T12:56:24;24.20;99.90
8105;DHT22;4095;48.942;9.104;2023-08-12T12:58:49;24.20;99.90
8105;DHT22;4095;48.942;9.104;2023-08-12T13:01:15;24.10;99.90
8105;DHT22;4095;48.942;9.104;2023-08-12T13:03:40;24.20;99.90
8105;DHT22;4095;48.942;9.104;2023-08-12T13:06:06;24.20;99.90
8105;DHT22;4095;48.942;9.104;2023-08-12T13:08:31;24.30;99.90
8105;DHT22;4095;48.942;9.104;2023-08-12T13:10:57;24.40;99.90
8105;DHT22;4095;48.942;9.104;2023-08-12T13:13:23;24.40;99.90
8105;DHT22;4095;48.942;9.104;2023-08-12T13:15:49;24.50;99.90
8105;DHT22;4095;48.942;9.104;2023-08-12T13:18:15;24.60;99.90
8105;DHT22;4095;48.942;9.104;2023-08-12T13:20:40;24.70;99.90
8105;DHT22;4095;48.942;9.104;2023-08-12T13:23:06;24.70;99.90
8105;DHT22;4095;48.942;9.104;2023-08-12T13:25:32;24.70;99.90
8105;DHT22;4095;48.942;9.104;2023-08-12T13:28:03;24.70;99.90
8105;DHT22;4095;48.942;9.104;2023-08-12T13:30:29;24.70;99.90
8105;DHT22;4095;48.942;9.104;2023-08-12T13:32:55;24.80;99.90
8105;DHT22;4095;48.942;9.104;2023-08-12T13:35:22;24.80;99.90
8105;DHT22;4095;48.942;9.104;2023-08-12T13:37:49;24.90;99.90
8105;DHT22;4095;48.942;9.104;2023-08-12T13:40:14;24.90;99.90
8105;DHT22;4095;48.942;9.104;2023-08-12T13:42:41;24.90;99.90
8105;DHT22;4095;48.942;9.104;2023-08-12T13:45:07;25.00;99.90
8105;DHT22;4095;48.942;9.104;2023-08-12T13:47:34;25.10;99.90
8105;DHT22;4095;48.942;9.104;2023-08-12T13:50:00;25.20;99.90
8105;DHT22;4095;48.942;9.104;2023-08-12T13:52:25;25.30;99.90
8105;DHT22;4095;48.942;9.104;2023-08-12T13:54:51;25.30;99.90
8105;DHT22;4095;48.942;9.104;2023-08-12T13:57:16;25.30;99.90
8105;DHT22;4095;48.942;9.104;2023-08-12T13:59:42;25.40;99.90
8105;DHT22;4095;48.942;9.104;2023-08-12T14:02:12;25.40;99.90
8105;DHT22;4095;48.942;9.104;2023-08-12T14:04:38;25.40;99.90
8105;DHT22;4095;48.942;9.104;2023-08-12T14:07:04;25.40;99.90
8105;DHT22;4095;48.942;9.104;2023-08-12T14:09:30;25.40;99.90
8105;DHT22;4095;48.942;9.104;2023-08-12T14:11:56;25.30;99.90
8105;DHT22;4095;48.942;9.104;2023-08-12T14:14:21;25.30;99.90
8105;DHT22;4095;48.942;9.104;2023-08-12T14:16:48;25.40;99.90
8105;DHT22;4095;48.942;9.104;2023-08-12T14:19:14;25.40;99.90
8105;DHT22;4095;48.942;9.104;2023-08-12T14:21:42;25.40;99.90
8105;DHT22;4095;48.942;9.104;2023-08-12T14:24:08;25.40;99.90
8105;DHT22;4095;48.942;9.104;2023-08-12T14:26:34;25.50;99.90
8105;DHT22;4095;48.942;9.104;2023-08-12T14:29:00;25.50;99.90
8105;DHT22;4095;48.942;9.104;2023-08-12T14:31:26;25.50;99.90
8105;DHT22;4095;48.942;9.104;2023-08-12T14:33:51;25.50;99.90
8105;DHT22;4095;48.942;9.104;2023-08-12T14:36:17;25.50;99.90
8105;DHT22;4095;48.942;9.104;2023-08-12T14:38:42;25.60;99.90
8105;DHT22;4095;48.942;9.104;2023-08-12T14:41:08;25.60;99.90
8105;DHT22;4095;48.942;9.104;2023-08-12T14:43:34;25.60;99.90
8105;DHT22;4095;48.942;9.104;2023-08-12T14:45:59;25.60;99.90
8105;DHT22;4095;48.942;9.104;2023-08-12T14:48:25;25.60;99.90
8105;DHT22;4095;48.942;9.104;2023-08-12T14:50:50;25.60;99.90
8105;DHT22;4095;48.942;9.104;2023-08-12T14:53:16;25.70;99.90
8105;DHT22;4095;48.942;9.104;2023-08-12T14:55:41;25.60;99.90
8105;DHT22;4095;48.942;9.104;2023-08-12T14:58:07;25.60;99.90
8105;DHT22;4095;48.942;9.104;2023-08-12T15:00:33;25.60;99.90
8105;DHT22;4095;48.942;9.104;2023-08-12T15:02:59;25.60;99.90
8105;DHT22;4095;48.942;9.104;2023-08-12T15:05:25;25.60;99.90
8105;DHT22;4095;48.942;9.104;2023-08-12T15:07:50;25.50;99.90
8105;DHT22;4095;48.942;9.104;2023-08-12T15:10:16;25.60;99.90
8105;DHT22;4095;48.942;9.104;2023-08-12T15:12:42;25.50;99.90
8105;DHT22;4095;48.942;9.104;2023-08-12T15:15:07;25.50;99.90
8105;DHT22;4095;48.942;9.104;2023-08-12T15:17:33;25.40;99.90
8105;DHT22;4095;48.942;9.104;2023-08-12T15:19:58;25.40;99.90
8105;DHT22;4095;48.942;9.104;2023-08-12T15:22:24;25.40;99.90
8105;DHT22;4095;48.942;9.104;2023-08-12T15:24:50;25.30;99.90
8105;DHT22;4095;48.942;9.104;2023-08-12T15:27:15;25.30;99.90
8105;DHT22;4095;48.942;9.104;2023-08-12T15:29:41;25.30;99.90
8105;DHT22;4095;48.942;9.104;2023-08-12T15:32:06;25.20;99.90
8105;DHT22;4095;48.942;9.104;2023-08-12T15:34:32;25.20;99.90
8105;DHT22;4095;48.942;9.104;2023-08-12T15:36:57;25.20;99.90
8105;DHT22;4095;48.942;9.104;2023-08-12T15:39:23;25.10;99.90
8105;DHT22;4095;48.942;9.104;2023-08-12T15:41:49;25.10;99.90
8105;DHT22;4095;48.942;9.104;2023-08-12T15:44:15;25.10;99.90
8105;DHT22;4095;48.942;9.104;2023-08-12T15:46:41;25.10;99.90
8105;DHT22;4095;48.942;9.104;2023-08-12T15:49:07;25.00;99.90
8105;DHT22;4095;48.942;9.104;2023-08-12T15:51:37;25.00;99.90
8105;DHT22;4095;48.942;9.104;2023-08-12T15:54:03;25.00;99.90
8105;DHT22;4095;48.942;9.104;2023-08-12T15:56:29;25.00;99.90
8105;DHT22;4095;48.942;9.104;2023-08-12T15:58:55;25.00;99.90